createdAt,value
2022-11-05T00:01:50.952Z,101633.28
2022-11-05T00:04:35.571Z,101636.41
2022-11-05T00:07:33.837Z,101634.66
2022-11-05T00:10:05.036Z,101638.84
2022-11-05T00:12:50.003Z,101644.53
2022-11-05T00:15:35.475Z,101637.06
2022-11-05T00:18:01.829Z,101635.84
2022-11-05T00:20:28.218Z,101646.81
2022-11-05T00:23:20.779Z,101649.78
2022-11-05T00:25:55.903Z,101659.38
2022-11-05T00:28:22.380Z,101651.22
2022-11-05T00:30:48.937Z,101659.22
2022-11-05T00:33:15.335Z,101669.81
2022-11-05T00:35:41.674Z,101677.81
2022-11-05T00:38:08.002Z,101662.84
2022-11-05T00:40:34.648Z,101659.84
2022-11-05T00:43:19.338Z,101664.31
2022-11-05T00:45:45.710Z,101673.69
2022-11-05T00:48:30.504Z,101672.84
2022-11-05T00:50:56.887Z,101684.25
2022-11-05T00:53:23.532Z,101682.88
2022-11-05T00:55:49.877Z,101694.25
2022-11-05T00:58:18.418Z,101692.50
2022-11-05T01:00:52.257Z,101691.41
2022-11-05T01:03:21.211Z,101694.84
2022-11-05T01:05:54.942Z,101689.81
2022-11-05T01:08:22.647Z,101696.97
2022-11-05T01:10:52.652Z,101694.66
2022-11-05T01:13:24.440Z,101701.00
2022-11-05T01:15:51.580Z,101702.09
2022-11-05T01:18:19.038Z,101700.81
2022-11-05T01:20:46.080Z,101706.91
2022-11-05T01:23:13.903Z,101709.31
2022-11-05T01:25:41.790Z,101705.47
2022-11-05T01:28:09.603Z,101701.63
2022-11-05T01:30:36.812Z,101702.00
2022-11-05T01:33:03.469Z,101702.41
2022-11-05T01:35:29.831Z,101701.69
2022-11-05T01:37:56.184Z,101699.25
2022-11-05T01:40:24.241Z,101705.09
2022-11-05T01:42:50.596Z,101715.53
2022-11-05T01:45:27.690Z,101722.53
2022-11-05T01:48:08.189Z,101723.06
2022-11-05T01:50:41.148Z,101719.91
2022-11-05T01:53:28.916Z,101723.13
2022-11-05T01:56:00.618Z,101718.44
2022-11-05T01:58:31.895Z,101720.47
2022-11-05T02:00:58.342Z,101715.66
2022-11-05T02:03:25.609Z,101708.19
2022-11-05T02:05:55.313Z,101704.09
2022-11-05T02:08:56.734Z,101700.94
2022-11-05T02:11:23.374Z,101697.69
2022-11-05T02:13:50.356Z,101694.44
2022-11-05T02:16:38.142Z,101693.72
2022-11-05T02:19:10.367Z,101691.13
2022-11-05T02:21:58.084Z,101691.84
2022-11-05T02:24:51.867Z,101691.97
2022-11-05T02:27:24.086Z,101691.03
2022-11-05T02:30:03.807Z,101684.13
2022-11-05T02:32:55.073Z,101685.06
2022-11-05T02:35:42.875Z,101684.38
2022-11-05T02:38:16.691Z,101687.19
2022-11-05T02:41:01.737Z,101689.88
2022-11-05T02:43:43.543Z,101695.84
2022-11-05T02:46:22.175Z,101695.97
2022-11-05T02:49:24.749Z,101697.72
2022-11-05T02:51:58.601Z,101697.03
2022-11-05T02:54:39.697Z,101694.47
2022-11-05T02:57:06.158Z,101688.59
2022-11-05T02:59:32.763Z,101685.22
2022-11-05T03:02:00.870Z,101690.47
2022-11-05T03:04:27.942Z,101688.16
2022-11-05T03:07:09.625Z,101683.00
2022-11-05T03:10:00.820Z,101690.84
2022-11-05T03:12:50.512Z,101689.19
2022-11-05T03:15:29.237Z,101679.88
2022-11-05T03:18:19.860Z,101687.81
2022-11-05T03:21:06.690Z,101686.28
2022-11-05T03:23:41.902Z,101684.69
2022-11-05T03:26:18.442Z,101691.66
2022-11-05T03:28:50.752Z,101695.19
2022-11-05T03:31:18.724Z,101694.41
2022-11-05T03:33:48.132Z,101692.19
2022-11-05T03:36:23.267Z,101699.28
2022-11-05T03:38:53.198Z,101700.94
2022-11-05T03:41:22.638Z,101705.28
2022-11-05T03:43:54.616Z,101700.13
2022-11-05T03:46:41.023Z,101701.88
2022-11-05T03:49:12.836Z,101699.41
2022-11-05T03:51:43.927Z,101698.47
2022-11-05T03:54:10.835Z,101704.56
2022-11-05T03:57:00.775Z,101696.16
2022-11-05T03:59:29.587Z,101709.00
2022-11-05T04:01:57.096Z,101709.97
2022-11-05T04:04:23.714Z,101715.00
2022-11-05T04:07:08.504Z,101715.78
2022-11-05T04:09:53.187Z,101712.41
2022-11-05T04:12:37.908Z,101715.78
2022-11-05T07:11:05.865Z,101789.13
2022-11-05T07:13:32.210Z,101797.38
2022-11-05T07:15:58.627Z,101798.31
2022-11-05T07:18:25.147Z,101799.44
2022-11-05T07:20:51.506Z,101803.19
2022-11-05T07:23:17.993Z,101801.38
2022-11-05T07:25:44.623Z,101794.41
2022-11-05T07:28:11.068Z,101795.34
2022-11-05T07:30:37.817Z,101798.19
2022-11-05T07:33:04.344Z,101794.09
2022-11-05T07:35:30.887Z,101792.59
2022-11-05T07:37:57.373Z,101798.44
2022-11-05T07:40:25.645Z,101797.50
2022-11-05T07:43:02.321Z,101798.31
2022-11-05T07:45:30.569Z,101806.75
2022-11-05T07:48:00.288Z,101803.34
2022-11-05T07:50:29.558Z,101801.44
2022-11-05T07:53:06.476Z,101799.56
2022-11-05T07:55:33.111Z,101807.16
2022-11-05T07:57:59.503Z,101804.19
2022-11-05T08:00:28.531Z,101809.78
2022-11-05T08:03:07.661Z,101812.13
2022-11-05T08:05:37.170Z,101818.53
2022-11-05T08:08:05.682Z,101813.00
2022-11-05T08:10:33.897Z,101815.03
2022-11-05T08:13:01.128Z,101812.06
2022-11-05T08:15:27.653Z,101813.31
2022-11-05T08:18:01.473Z,101808.56
2022-11-05T08:20:28.480Z,101807.91
2022-11-05T08:22:55.637Z,101809.81
2022-11-05T08:25:22.198Z,101807.41
2022-11-05T08:27:55.742Z,101815.19
2022-11-05T08:30:22.093Z,101807.56
2022-11-05T08:32:48.434Z,101809.19
2022-11-05T08:35:14.794Z,101809.34
2022-11-05T08:37:41.236Z,101806.75
2022-11-05T08:40:08.453Z,101806.47
2022-11-05T08:42:35.002Z,101804.44
2022-11-05T08:45:01.326Z,101808.75
2022-11-05T08:47:27.829Z,101813.78
2022-11-05T08:49:54.610Z,101812.41
2022-11-05T08:52:20.993Z,101818.13
2022-11-05T08:54:47.369Z,101821.09
2022-11-05T08:57:13.713Z,101818.25
2022-11-05T08:59:40.060Z,101819.88
2022-11-05T09:02:06.914Z,101812.13
2022-11-05T09:04:33.363Z,101817.28
2022-11-05T09:06:59.723Z,101817.97
2022-11-05T09:09:26.074Z,101809.94
2022-11-05T09:14:39.149Z,101812.63
2022-11-05T09:17:15.621Z,101818.19
2022-11-05T09:19:41.962Z,101811.78
2022-11-05T09:22:08.674Z,101810.53
2022-11-05T09:24:35.015Z,101808.63
2022-11-05T09:27:01.358Z,101815.00
2022-11-05T09:29:27.717Z,101809.41
2022-11-05T09:31:54.082Z,101814.00
2022-11-05T09:34:20.419Z,101806.47
2022-11-05T09:36:46.802Z,101805.63
2022-11-05T09:39:13.174Z,101808.63
2022-11-05T09:41:41.072Z,101809.78
2022-11-05T09:44:16.381Z,101815.06
2022-11-05T09:46:51.503Z,101815.28
2022-11-05T09:49:26.590Z,101818.72
2022-11-05T09:51:55.517Z,101813.53
2022-11-05T09:54:26.008Z,101813.63
2022-11-05T09:56:53.863Z,101817.31
2022-11-05T09:59:30.881Z,101825.16
2022-11-05T10:02:12.968Z,101831.25
2022-11-05T10:04:40.607Z,101830.34
2022-11-05T10:07:11.489Z,101833.19
2022-11-05T10:09:45.282Z,101831.09
2022-11-05T10:12:31.725Z,101832.56
2022-11-05T10:15:12.434Z,101829.59
2022-11-05T10:17:42.622Z,101831.03
2022-11-05T10:20:35.220Z,101828.03
2022-11-05T10:23:15.893Z,101831.34
2022-11-05T10:25:46.617Z,101839.19
2022-11-05T10:28:18.347Z,101833.75
2022-11-05T10:30:51.809Z,101835.56
2022-11-05T10:34:01.358Z,101837.56
2022-11-05T10:36:31.866Z,101839.88
2022-11-05T10:39:10.138Z,101848.66
2022-11-05T10:42:13.376Z,101843.66
2022-11-05T10:45:01.866Z,101839.63
2022-11-05T10:48:20.100Z,101842.69
2022-11-05T10:50:47.355Z,101844.19
2022-11-05T10:53:19.784Z,101840.28
2022-11-05T10:55:48.615Z,101840.66
2022-11-05T10:58:17.932Z,101829.75
2022-11-05T11:01:00.428Z,101839.19
2022-11-05T11:03:44.114Z,101839.81
2022-11-05T11:06:18.199Z,101845.34
2022-11-05T11:08:47.119Z,101835.78
2022-11-05T11:11:45.155Z,101840.97
2022-11-05T11:14:11.574Z,101843.72
2022-11-05T11:16:43.286Z,101839.50
2022-11-05T11:19:32.273Z,101838.03
2022-11-05T11:22:04.856Z,101836.25
2022-11-05T11:24:49.384Z,101833.19
2022-11-05T11:27:21.262Z,101836.25
2022-11-05T11:30:01.866Z,101844.06
2022-11-05T11:32:34.595Z,101834.81
2022-11-05T11:35:01.457Z,101840.00
2022-11-05T11:37:30.244Z,101843.94
2022-11-05T11:40:15.130Z,101834.00
2022-11-05T11:42:46.574Z,101840.22
2022-11-05T11:45:23.143Z,101837.44
2022-11-05T11:47:50.887Z,101841.66
2022-11-05T11:50:44.510Z,101838.56
2022-11-05T11:53:19.990Z,101832.56
2022-11-05T11:55:55.526Z,101838.25
2022-11-05T11:58:25.228Z,101838.41
2022-11-05T12:01:15.243Z,101831.41
2022-11-05T12:03:50.694Z,101825.72
2022-11-05T12:06:54.261Z,101820.38
2022-11-05T12:09:59.793Z,101825.25
2022-11-05T12:12:34.098Z,101823.28
2022-11-05T12:15:12.851Z,101825.41
2022-11-05T12:17:50.089Z,101826.53
2022-11-05T12:20:51.687Z,101826.22
2022-11-05T12:23:32.892Z,101823.28
2022-11-05T12:26:33.932Z,101823.47
2022-11-05T12:29:20.294Z,101813.56
2022-11-05T12:31:55.650Z,101811.75
2022-11-05T12:34:59.726Z,101810.56
2022-11-05T12:37:55.820Z,101811.34
2022-11-05T12:40:37.482Z,101809.56
2022-11-05T12:43:31.157Z,101806.13
2022-11-05T12:46:14.163Z,101802.41
2022-11-05T12:49:02.492Z,101808.91
2022-11-05T12:52:10.480Z,101799.63
2022-11-05T12:54:55.954Z,101797.19
2022-11-05T12:57:23.166Z,101796.56
2022-11-05T13:00:02.432Z,101798.50
2022-11-05T13:02:51.071Z,101793.63
2022-11-05T13:05:36.781Z,101787.94
2022-11-05T13:08:14.944Z,101781.28
2022-11-05T13:10:50.831Z,101790.25
2022-11-05T13:13:44.556Z,101781.13
2022-11-05T13:16:33.861Z,101774.13
2022-11-05T13:19:11.956Z,101772.50
2022-11-05T13:21:39.287Z,101774.28
2022-11-05T13:24:23.440Z,101758.66
2022-11-05T13:26:59.386Z,101755.09
2022-11-05T13:29:36.855Z,101747.28
2022-11-05T13:32:24.525Z,101746.28
2022-11-05T13:34:59.404Z,101741.91
2022-11-05T13:40:36.531Z,101737.81
2022-11-05T13:43:24.590Z,101752.31
2022-11-05T13:46:09.905Z,101750.84
2022-11-05T13:48:54.673Z,101746.44
2022-11-05T13:51:42.719Z,101743.31
2022-11-05T13:54:39.037Z,101744.00
2022-11-05T13:57:29.994Z,101742.88
2022-11-05T14:00:21.415Z,101734.59
2022-11-05T14:02:59.417Z,101745.50
2022-11-05T14:05:57.561Z,101754.94
2022-11-05T14:08:27.656Z,101750.28
2022-11-05T14:10:59.422Z,101749.28
2022-11-05T14:13:39.664Z,101751.59
2022-11-05T14:16:24.115Z,101749.00
2022-11-05T14:19:14.661Z,101756.97
2022-11-05T14:21:52.474Z,101753.38
2022-11-05T14:24:40.389Z,101750.94
2022-11-05T14:27:06.722Z,101753.03
2022-11-05T14:29:38.787Z,101757.59
2022-11-05T14:32:26.951Z,101756.16
2022-11-05T14:35:02.190Z,101754.06
2022-11-05T14:37:32.178Z,101744.13
2022-11-05T14:40:23.731Z,101744.16
2022-11-05T14:42:57.113Z,101754.72
2022-11-05T14:45:30.165Z,101741.41
2022-11-05T14:48:02.586Z,101747.25
2022-11-05T14:50:35.048Z,101749.38
2022-11-05T14:53:28.807Z,101748.84
2022-11-05T14:56:17.660Z,101747.88
2022-11-05T14:58:45.643Z,101744.13
2022-11-05T15:01:15.051Z,101739.94
2022-11-05T15:03:46.306Z,101743.47
2022-11-05T15:06:29.608Z,101741.19
2022-11-05T15:09:14.473Z,101751.75
2022-11-05T15:11:47.111Z,101750.31
2022-11-05T15:14:22.623Z,101745.13
2022-11-05T15:16:53.209Z,101746.88
2022-11-05T15:19:32.361Z,101746.22
2022-11-05T15:22:02.568Z,101742.84
2022-11-05T15:24:29.319Z,101738.59
2022-11-05T15:27:07.578Z,101740.41
2022-11-05T15:29:34.540Z,101739.75
2022-11-05T15:32:01.185Z,101742.50
2022-11-05T15:34:33.284Z,101732.44
2022-11-05T15:37:19.911Z,101736.31
2022-11-05T15:39:48.573Z,101729.81
2022-11-05T15:42:22.124Z,101730.13
2022-11-05T15:44:51.071Z,101730.28
2022-11-05T15:47:31.167Z,101733.22
2022-11-05T15:50:01.165Z,101727.38
2022-11-05T15:52:42.452Z,101720.53
2022-11-05T15:55:11.827Z,101714.69
2022-11-05T15:57:46.451Z,101722.63
2022-11-05T16:00:22.234Z,101725.41
2022-11-05T16:02:56.013Z,101718.53
2022-11-05T16:05:23.903Z,101723.72
2022-11-05T16:07:50.308Z,101724.03
2022-11-05T16:10:24.082Z,101717.25
2022-11-05T16:12:50.561Z,101723.41
2022-11-05T16:15:20.442Z,101722.06
2022-11-05T16:17:46.724Z,101715.44
2022-11-05T16:20:34.734Z,101711.50
2022-11-05T16:23:06.968Z,101708.41
2022-11-05T16:25:42.323Z,101712.66
2022-11-05T16:28:23.099Z,101717.00
2022-11-05T16:30:56.801Z,101705.81
2022-11-05T16:33:24.907Z,101704.38
2022-11-05T16:35:51.389Z,101698.50
2022-11-05T16:38:18.958Z,101698.81
2022-11-05T16:40:45.330Z,101694.78
2022-11-05T16:43:21.041Z,101700.13
2022-11-05T16:45:48.237Z,101704.47
2022-11-05T16:48:15.962Z,101711.47
2022-11-05T16:50:43.006Z,101710.81
2022-11-05T16:53:09.480Z,101715.34
2022-11-05T16:55:38.780Z,101708.53
2022-11-05T16:58:06.963Z,101713.88
2022-11-05T17:00:33.454Z,101712.22
2022-11-05T17:02:59.857Z,101713.22
2022-11-05T17:05:29.212Z,101704.59
2022-11-05T17:07:56.269Z,101709.16
2022-11-05T17:10:24.018Z,101708.50
2022-11-05T17:12:51.060Z,101707.69
2022-11-05T17:15:34.366Z,101709.44
2022-11-05T17:18:01.719Z,101706.06
2022-11-05T17:20:42.124Z,101703.31
2022-11-05T17:23:11.314Z,101706.84
2022-11-05T17:25:39.735Z,101709.28
2022-11-05T17:28:06.350Z,101712.03
2022-11-05T17:30:33.043Z,101707.84
2022-11-05T17:32:59.612Z,101705.25
2022-11-05T17:35:27.112Z,101708.81
2022-11-05T17:37:53.522Z,101699.38
2022-11-05T17:40:24.823Z,101708.00
2022-11-05T17:42:51.749Z,101708.97
2022-11-05T17:45:18.573Z,101715.09
2022-11-05T17:47:45.073Z,101719.50
2022-11-05T17:50:13.513Z,101723.72
2022-11-05T17:52:39.923Z,101727.28
2022-11-05T17:55:08.514Z,101731.66
2022-11-05T17:57:34.869Z,101739.44
2022-11-05T18:00:01.211Z,101732.47
2022-11-05T18:02:29.446Z,101735.06
2022-11-05T18:04:55.962Z,101739.94
2022-11-05T18:07:22.296Z,101738.16
2022-11-05T18:09:48.670Z,101737.19
2022-11-05T18:12:15.069Z,101731.06
2022-11-05T18:14:41.437Z,101725.19
2022-11-05T18:17:07.857Z,101731.34
2022-11-05T18:19:37.142Z,101712.50
2022-11-05T18:22:03.519Z,101712.66
2022-11-05T18:24:30.177Z,101716.41
2022-11-05T18:26:56.589Z,101715.75
2022-11-05T18:29:22.949Z,101705.69
2022-11-05T18:31:49.289Z,101698.84
2022-11-05T18:34:15.713Z,101703.25
2022-11-05T18:36:43.654Z,101699.97
2022-11-05T18:39:10.226Z,101707.75
2022-11-05T18:41:36.794Z,101709.38
2022-11-05T18:44:03.995Z,101702.56
2022-11-05T18:49:18.458Z,101688.16
2022-11-05T18:51:44.820Z,101687.38
2022-11-05T18:54:11.422Z,101693.66
2022-11-05T18:56:39.402Z,101693.50
2022-11-05T18:59:34.465Z,101690.91
2022-11-05T19:01:52.995Z,101683.94
2022-11-05T19:04:19.437Z,101680.69
2022-11-05T19:06:46.041Z,101679.06
2022-11-05T19:09:12.808Z,101670.31
2022-11-05T19:11:40.261Z,101669.34
2022-11-05T19:14:07.298Z,101669.03
2022-11-05T19:16:33.972Z,101680.38
2022-11-05T19:19:02.392Z,101671.47
2022-11-05T19:21:29.234Z,101657.53
2022-11-05T19:24:01.311Z,101651.53
2022-11-05T19:26:29.264Z,101636.91
2022-11-05T19:28:58.685Z,101627.84
2022-11-05T19:31:25.685Z,101628.78
2022-11-05T19:33:52.802Z,101628.16
2022-11-05T19:36:21.228Z,101621.31
2022-11-05T19:38:57.339Z,101623.28
2022-11-05T19:41:24.313Z,101629.56
2022-11-05T19:43:52.382Z,101630.72
2022-11-05T19:46:19.569Z,101632.81
2022-11-05T19:48:46.066Z,101631.19
2022-11-05T19:51:22.269Z,101633.78
2022-11-05T19:53:49.663Z,101630.03
2022-11-05T19:56:18.931Z,101628.78
2022-11-05T19:58:45.780Z,101632.00
2022-11-05T20:01:13.186Z,101637.19
2022-11-05T20:03:40.375Z,101635.44
2022-11-05T20:06:10.376Z,101630.91
2022-11-05T20:08:53.464Z,101631.69
2022-11-05T20:11:24.161Z,101631.69
2022-11-05T20:13:50.498Z,101629.09
2022-11-05T20:16:22.855Z,101634.28
2022-11-05T20:18:50.030Z,101622.47
2022-11-05T20:21:17.175Z,101618.09
2022-11-05T20:23:44.197Z,101616.44
2022-11-05T20:26:11.100Z,101623.72
2022-11-05T20:28:38.277Z,101610.75
2022-11-05T20:31:09.756Z,101617.75
2022-11-05T20:33:36.943Z,101607.38
2022-11-05T20:36:12.569Z,101615.94
2022-11-05T20:38:39.325Z,101624.53
2022-11-05T20:41:10.526Z,101620.34
2022-11-05T20:43:38.303Z,101617.91
2022-11-05T20:46:04.725Z,101619.66
2022-11-05T20:48:32.714Z,101609.13
2022-11-05T20:50:59.153Z,101604.94
2022-11-05T20:53:25.803Z,101608.31
2022-11-05T20:55:52.153Z,101618.69
2022-11-05T20:58:18.550Z,101618.84
2022-11-05T21:00:51.188Z,101616.88
2022-11-05T21:03:17.978Z,101616.38
2022-11-05T21:05:46.192Z,101623.38
2022-11-05T21:08:13.023Z,101625.47
2022-11-05T21:10:39.603Z,101617.84
2022-11-05T21:13:05.958Z,101626.88
2022-11-05T21:15:33.027Z,101619.22
2022-11-05T21:17:59.591Z,101623.09
2022-11-05T21:20:26.136Z,101614.78
2022-11-05T21:22:52.528Z,101626.78
2022-11-05T21:25:18.885Z,101622.72
2022-11-05T21:27:45.275Z,101620.28
2022-11-05T21:30:12.137Z,101619.47
2022-11-05T21:32:38.505Z,101613.63
2022-11-05T21:35:05.361Z,101621.41
2022-11-05T21:37:32.461Z,101623.34
2022-11-05T21:39:58.922Z,101628.88
2022-11-05T21:42:25.303Z,101614.94
2022-11-05T21:44:54.022Z,101610.28
2022-11-05T21:47:24.207Z,101611.91
2022-11-05T21:49:50.582Z,101618.72
2022-11-05T21:52:35.578Z,101611.75
2022-11-05T21:55:20.420Z,101605.44
2022-11-05T21:58:05.731Z,101602.03
2022-11-05T22:00:32.149Z,101600.09
2022-11-05T22:03:00.014Z,101597.22
2022-11-05T22:05:27.310Z,101595.56
2022-11-05T22:07:53.686Z,101593.94
2022-11-05T22:10:20.105Z,101601.72
2022-11-05T22:12:46.787Z,101598.31
2022-11-05T22:15:13.797Z,101594.75
2022-11-05T22:17:43.960Z,101588.75
2022-11-05T22:20:13.081Z,101594.63
2022-11-05T22:22:39.435Z,101592.03
2022-11-05T22:25:05.967Z,101589.59
2022-11-05T22:27:32.323Z,101570.59
2022-11-05T22:29:58.662Z,101563.81
2022-11-05T22:32:25.054Z,101563.81
2022-11-05T22:34:51.525Z,101551.81
2022-11-05T22:37:17.964Z,101557.78
2022-11-05T22:39:44.302Z,101560.22
2022-11-05T22:42:10.723Z,101563.66
2022-11-05T22:44:37.348Z,101573.03
2022-11-05T22:47:04.004Z,101572.22
2022-11-05T22:49:30.377Z,101573.03
2022-11-05T22:51:56.865Z,101576.16
2022-11-05T22:54:23.227Z,101572.88
2022-11-05T22:56:50.293Z,101570.59
2022-11-05T22:59:16.736Z,101564.59
2022-11-05T23:01:44.775Z,101556.03
2022-11-05T23:04:12.968Z,101562.00
2022-11-05T23:06:58.628Z,101572.06
2022-11-05T23:09:47.193Z,101557.16
2022-11-05T23:12:29.282Z,101557.00
2022-11-05T23:14:57.371Z,101549.22
2022-11-05T23:17:42.922Z,101548.28
2022-11-05T23:20:49.425Z,101539.84
2022-11-05T23:23:36.126Z,101541.44
2022-11-05T23:26:25.136Z,101542.44
2022-11-05T23:28:51.641Z,101545.19
2022-11-05T23:31:36.775Z,101540.16
2022-11-05T23:34:03.116Z,101533.16
2022-11-05T23:36:48.130Z,101525.03
2022-11-05T23:39:14.551Z,101522.59
2022-11-05T23:41:59.336Z,101531.50
2022-11-05T23:44:44.091Z,101540.06
2022-11-05T23:47:28.905Z,101535.88
2022-11-05T23:49:55.267Z,101545.25
2022-11-05T23:52:21.645Z,101539.25
2022-11-05T23:54:47.983Z,101528.09
2022-11-05T23:57:14.337Z,101520.16
2022-11-05T23:59:40.680Z,101516.59
